Time;durP1;ratioP1;P1;durP2;ratioP2;P2;SDS_P1;SDS_P2;PMS_P1;PMS_P2;Temp;Humidity;BMP_temperature;BMP_pressure;BME280_temperature;BME280_humidity;BME280_pressure;Samples;Min_cycle;Max_cycle;Signal;HPM_P1;HPM_P2
2022/08/11 00:01:25;;;;;;;;;;;;;;;17.86;68.02;101224.41;5001453;28;1438;-81
2022/08/11 00:03:56;;;;;;;;;;;;;;;18.04;68.49;101218.69;4998884;28;1365;-82
2022/08/11 00:06:24;;;;;;;;;;;;;;;17.94;68.62;101216.16;4999202;28;2034;-81
2022/08/11 00:08:50;;;;;;;;;;;;;;;17.92;67.32;101221.19;5000134;28;1173;-81
2022/08/11 00:11:16;;;;;;;;;;;;;;;17.95;67.71;101217.78;5015278;28;1315;-82
2022/08/11 00:13:46;;;;;;;;;;;;;;;17.60;68.79;101215.81;4999379;28;1340;-81
2022/08/11 00:16:12;;;;;;;;;;;;;;;17.60;68.75;101215.81;5004797;28;1582;-82
2022/08/11 00:18:57;;;;;;;;;;;;;;;17.75;68.77;101212.72;4996677;28;1422;-81
2022/08/11 00:21:24;;;;;;;;;;;;;;;17.60;68.08;101216.63;5009984;28;1407;-81
2022/08/11 00:24:08;;;;;;;;;;;;;;;17.66;69.10;101209.06;4999564;28;1364;-81
2022/08/11 00:26:35;;;;;;;;;;;;;;;17.56;68.83;101207.28;5013764;28;1882;-81
2022/08/11 00:29:10;;;;;;;;;;;;;;;17.62;68.39;101219.09;4999461;28;1364;-81
2022/08/11 00:31:35;;;;;;;;;;;;;;;17.61;68.73;101209.94;4998568;28;1314;-81
2022/08/11 00:34:01;;;;;;;;;;;;;;;17.63;67.74;101209.66;4990839;28;1704;-82
2022/08/11 00:36:28;;;;;;;;;;;;;;;17.59;67.96;101217.75;4992494;28;1278;-82
2022/08/11 00:39:01;;;;;;;;;;;;;;;17.50;69.01;101211.31;4997818;28;1446;-81
2022/08/11 00:41:41;;;;;;;;;;;;;;;17.51;68.60;101215.72;5002901;28;1440;-81
2022/08/11 00:44:18;;;;;;;;;;;;;;;17.53;69.09;101227.28;5003628;28;1426;-81
2022/08/11 00:47:02;;;;;;;;;;;;;;;17.46;68.75;101223.28;5014062;28;2083;-81
2022/08/11 00:49:41;;;;;;;;;;;;;;;17.36;69.41;101221.56;4999418;28;1269;-81
2022/08/11 00:52:12;;;;;;;;;;;;;;;17.19;69.48;101213.88;5000223;28;1481;-81
2022/08/11 00:54:56;;;;;;;;;;;;;;;17.23;70.57;101219.63;5000764;28;1264;-81
2022/08/11 00:57:39;;;;;;;;;;;;;;;16.95;71.26;101216.00;4999464;28;1689;-82
2022/08/11 01:00:04;;;;;;;;;;;;;;;17.05;70.14;101210.28;5011363;28;1378;-81
2022/08/11 01:02:43;;;;;;;;;;;;;;;17.06;69.70;101214.69;4998427;28;1597;-82
2022/08/11 01:05:27;;;;;;;;;;;;;;;17.13;70.54;101220.63;4996954;28;1573;-82
2022/08/11 01:08:06;;;;;;;;;;;;;;;16.60;72.70;101211.91;4999955;28;1972;-81
2022/08/11 01:10:31;;;;;;;;;;;;;;;16.89;72.11;101214.47;5000761;28;1858;-82
2022/08/11 01:13:12;;;;;;;;;;;;;;;17.00;70.01;101215.94;5015715;28;1834;-81
2022/08/11 01:15:56;;;;;;;;;;;;;;;16.88;70.97;101210.06;5000170;28;1216;-81
2022/08/11 01:18:24;;;;;;;;;;;;;;;16.84;71.20;101218.13;5006260;28;1588;-82
2022/08/11 01:21:16;;;;;;;;;;;;;;;16.48;72.08;101222.66;5016090;28;1238;-81
2022/08/11 01:24:01;;;;;;;;;;;;;;;16.66;71.53;101218.22;4981251;28;1204;-82
2022/08/11 01:26:46;;;;;;;;;;;;;;;16.68;71.10;101222.31;5009194;28;1891;-81
2022/08/11 01:29:30;;;;;;;;;;;;;;;16.82;70.06;101228.72;5016423;28;1417;-82
2022/08/11 01:32:07;;;;;;;;;;;;;;;16.54;71.69;101215.91;4998235;28;1319;-82
2022/08/11 01:34:41;;;;;;;;;;;;;;;16.50;71.20;101221.19;4998720;28;1403;-82
2022/08/11 01:37:28;;;;;;;;;;;;;;;16.53;71.62;101215.09;5000415;28;1233;-82
2022/08/11 01:39:59;;;;;;;;;;;;;;;16.62;71.51;101218.00;4985866;28;1217;-82
2022/08/11 01:45:36;;;;;;;;;;;;;;;16.54;71.76;101222.25;4999766;28;1406;-81
2022/08/11 01:48:01;;;;;;;;;;;;;;;16.12;72.97;101226.00;5016470;28;1965;-81
2022/08/11 01:50:38;;;;;;;;;;;;;;;16.43;71.83;101217.19;4999947;28;1204;-81
2022/08/11 01:53:18;;;;;;;;;;;;;;;16.41;72.33;101223.03;4994720;28;1756;-82
2022/08/11 01:55:53;;;;;;;;;;;;;;;16.35;72.56;101228.94;4992867;28;1044;-81
2022/08/11 01:58:24;;;;;;;;;;;;;;;16.55;71.60;101232.19;5000003;28;786;-82
2022/08/11 02:00:57;;;;;;;;;;;;;;;16.52;71.45;101224.50;4998950;28;1626;-82
2022/08/11 02:03:37;;;;;;;;;;;;;;;16.57;71.50;101226.38;4999442;28;1287;-81
2022/08/11 02:06:53;;;;;;;;;;;;;;;16.39;71.51;101227.22;5002242;28;1886;-81
2022/08/11 02:09:11;;;;;;;;;;;;;;;16.51;71.11;101230.31;4982902;28;1183;-81
2022/08/11 02:11:37;;;;;;;;;;;;;;;16.30;72.46;101231.78;5001859;28;1432;-81
2022/08/11 02:14:11;;;;;;;;;;;;;;;16.28;72.43;101227.38;5003335;28;853;-82
2022/08/11 02:16:54;;;;;;;;;;;;;;;16.22;71.88;101228.59;4986011;28;1593;-81
2022/08/11 02:25:06;;;;;;;;;;;;;;;16.14;72.73;101229.28;4991883;28;1311;-81
2022/08/11 02:27:44;;;;;;;;;;;;;;;16.03;72.31;101238.00;5002001;28;1894;-81
2022/08/11 02:30:11;;;;;;;;;;;;;;;16.12;72.54;101242.56;4997304;28;1342;-81
2022/08/11 02:35:35;;;;;;;;;;;;;;;15.83;73.64;101234.41;5000760;28;1625;-81
2022/08/11 02:38:06;;;;;;;;;;;;;;;15.82;73.77;101243.03;5000795;28;1714;-82
2022/08/11 02:40:50;;;;;;;;;;;;;;;15.99;72.94;101246.06;5001400;28;1758;-81
2022/08/11 02:43:23;;;;;;;;;;;;;;;15.78;73.24;101237.25;5001445;28;1433;-81
2022/08/11 02:45:53;;;;;;;;;;;;;;;15.78;73.38;101231.75;5001085;28;1969;-81
2022/08/11 02:51:24;;;;;;;;;;;;;;;15.47;74.58;101234.06;5002976;28;1564;-81
2022/08/11 02:54:08;;;;;;;;;;;;;;;15.65;74.03;101234.41;5001644;28;1833;-81
2022/08/11 02:56:36;;;;;;;;;;;;;;;15.51;74.07;101234.28;5002002;28;1362;-81
2022/08/11 03:02:14;;;;;;;;;;;;;;;15.54;73.41;101235.66;4994080;28;1714;-81
2022/08/11 03:04:48;;;;;;;;;;;;;;;15.55;73.14;101238.13;5015160;28;1458;-81
2022/08/11 03:07:20;;;;;;;;;;;;;;;15.30;74.02;101236.47;5002089;28;1894;-81
2022/08/11 03:09:48;;;;;;;;;;;;;;;15.31;74.27;101231.78;5000940;28;1382;-81
2022/08/11 03:18:12;;;;;;;;;;;;;;;15.41;74.17;101237.16;4985168;28;1613;-81
2022/08/11 03:20:55;;;;;;;;;;;;;;;15.21;73.92;101235.47;4993410;28;1343;-81
2022/08/11 03:23:23;;;;;;;;;;;;;;;15.38;73.62;101230.31;5000670;28;1636;-81
2022/08/11 03:26:01;;;;;;;;;;;;;;;15.42;73.83;101236.03;5000655;28;2043;-81
2022/08/11 03:28:27;;;;;;;;;;;;;;;15.24;73.92;101240.38;5016304;28;1749;-81
2022/08/11 03:31:11;;;;;;;;;;;;;;;15.09;74.33;101232.28;5012720;28;1488;-81
2022/08/11 03:34:02;;;;;;;;;;;;;;;15.19;74.11;101228.59;4999548;28;1440;-81
2022/08/11 03:36:49;;;;;;;;;;;;;;;15.09;74.40;101235.06;4999331;28;1719;-81
2022/08/11 03:39:19;;;;;;;;;;;;;;;15.05;74.62;101237.59;4995536;28;1572;-81
2022/08/11 03:42:07;;;;;;;;;;;;;;;15.09;75.33;101240.56;4998648;28;1536;-82
2022/08/11 03:44:38;;;;;;;;;;;;;;;14.99;75.53;101235.97;5000155;28;1707;-81
2022/08/11 03:47:09;;;;;;;;;;;;;;;15.08;74.62;101238.91;5000191;28;1902;-81
2022/08/11 03:50:00;;;;;;;;;;;;;;;15.00;74.40;101242.31;4995417;28;1323;-81
2022/08/11 03:52:47;;;;;;;;;;;;;;;14.98;75.32;101244.53;5003992;28;1508;-81
2022/08/11 03:55:20;;;;;;;;;;;;;;;14.96;74.17;101236.59;5003631;28;1452;-81
2022/08/11 03:58:08;;;;;;;;;;;;;;;14.55;76.02;101243.56;5012786;28;1646;-81
2022/08/11 04:01:02;;;;;;;;;;;;;;;14.69;75.60;101250.91;5006310;28;1433;-82
2022/08/11 04:03:39;;;;;;;;;;;;;;;14.84;76.03;101251.88;4999578;28;1609;-81
2022/08/11 04:06:06;;;;;;;;;;;;;;;14.71;75.74;101250.63;4998101;28;1894;-81
2022/08/11 04:08:49;;;;;;;;;;;;;;;14.64;75.76;101250.94;4983402;28;1579;-81
2022/08/11 04:11:14;;;;;;;;;;;;;;;14.64;76.33;101252.88;4994252;28;1722;-81
2022/08/11 04:13:41;;;;;;;;;;;;;;;14.82;75.76;101249.38;4993861;28;1334;-82
2022/08/11 04:16:14;;;;;;;;;;;;;;;14.63;75.45;101252.03;4998127;28;1721;-81
2022/08/11 04:18:54;;;;;;;;;;;;;;;14.59;76.69;101252.91;4999014;28;1405;-81
2022/08/11 04:21:19;;;;;;;;;;;;;;;14.60;76.47;101260.91;4997753;28;1631;-82
2022/08/11 04:24:06;;;;;;;;;;;;;;;14.48;76.46;101260.44;5001076;28;1523;-82
2022/08/11 04:26:34;;;;;;;;;;;;;;;14.36;76.92;101259.97;5010878;28;1879;-83
2022/08/11 04:29:18;;;;;;;;;;;;;;;14.64;75.78;101252.88;5014479;28;1673;-83
2022/08/11 04:31:57;;;;;;;;;;;;;;;14.73;76.56;101254.72;5008848;28;1681;-83
2022/08/11 04:34:36;;;;;;;;;;;;;;;14.62;76.20;101258.69;4996066;28;1785;-83
2022/08/11 04:37:33;;;;;;;;;;;;;;;14.38;77.11;101252.22;4996202;28;1809;-83
2022/08/11 04:40:12;;;;;;;;;;;;;;;14.56;76.57;101246.03;4996565;28;2043;-84
2022/08/11 04:45:58;;;;;;;;;;;;;;;14.38;77.34;101252.22;4984925;28;1441;-84
2022/08/11 05:03:06;;;;;;;;;;;;;;;14.50;77.34;101254.66;5000375;28;1619;-84
2022/08/11 05:05:59;;;;;;;;;;;;;;;14.59;76.81;101252.91;4998899;28;1417;-83
2022/08/11 05:08:47;;;;;;;;;;;;;;;14.56;76.62;101250.72;5008478;28;1448;-85
2022/08/11 05:11:24;;;;;;;;;;;;;;;14.63;76.72;101252.03;4994900;28;1413;-85
2022/08/11 05:36:31;;;;;;;;;;;;;;;14.83;78.31;101253.78;4999345;28;1616;-84
2022/08/11 05:58:22;;;;;;;;;;;;;;;15.57;80.66;101254.41;4992974;28;1508;-83
2022/08/11 06:00:48;;;;;;;;;;;;;;;15.69;79.78;101243.72;4999402;28;1481;-83
2022/08/11 06:03:26;;;;;;;;;;;;;;;15.68;80.86;101251.19;5001960;28;1795;-84
2022/08/11 06:05:52;;;;;;;;;;;;;;;15.72;80.83;101245.91;5001146;28;1878;-83
2022/08/11 06:08:17;;;;;;;;;;;;;;;15.83;80.87;101247.38;5002358;28;1457;-83
2022/08/11 06:10:43;;;;;;;;;;;;;;;15.94;80.17;101248.91;5007725;28;1638;-83
2022/08/11 06:13:09;;;;;;;;;;;;;;;16.00;79.88;101244.94;5003120;28;1743;-83
2022/08/11 06:15:45;;;;;;;;;;;;;;;16.05;79.00;101239.34;5001149;28;1595;-83
2022/08/11 06:18:11;;;;;;;;;;;;;;;16.10;77.89;101247.56;5003157;28;1436;-83
2022/08/11 06:20:50;;;;;;;;;;;;;;;16.14;76.82;101239.50;5001674;28;1420;-83
2022/08/11 06:23:21;;;;;;;;;;;;;;;16.20;77.18;101246.59;5001920;28;1410;-83
2022/08/11 06:25:47;;;;;;;;;;;;;;;16.23;76.25;101244.06;4984097;28;1832;-83
2022/08/11 06:28:14;;;;;;;;;;;;;;;16.25;76.93;101252.00;4983018;28;2020;-84
2022/08/11 06:30:42;;;;;;;;;;;;;;;16.24;76.83;101245.69;5017138;28;1368;-84
2022/08/11 06:33:13;;;;;;;;;;;;;;;16.30;76.40;101237.31;5000742;28;1723;-83
2022/08/11 06:35:44;;;;;;;;;;;;;;;16.36;76.26;101245.22;4992762;28;1739;-83
2022/08/11 06:38:33;;;;;;;;;;;;;;;16.39;75.40;101247.38;4994627;28;1408;-83
2022/08/11 06:44:09;;;;;;;;;;;;;;;16.47;75.93;101249.47;5001426;28;1767;-83
2022/08/11 06:46:37;;;;;;;;;;;;;;;16.51;75.97;101247.72;5009170;28;1887;-83
2022/08/11 06:49:04;;;;;;;;;;;;;;;16.56;75.84;101252.34;5000293;28;1417;-83
2022/08/11 06:51:30;;;;;;;;;;;;;;;16.60;76.12;101242.31;4997119;28;1532;-83
2022/08/11 06:53:58;;;;;;;;;;;;;;;16.61;76.38;101244.81;4996154;28;1377;-83
2022/08/11 07:02:03;;;;;;;;;;;;;;;16.69;77.28;101245.25;5002505;28;1612;-83
2022/08/11 07:04:35;;;;;;;;;;;;;;;16.71;76.64;101249.34;4999486;28;1610;-84
2022/08/11 07:15:41;;;;;;;;;;;;;;;16.90;75.56;101241.00;4997749;28;1351;-83
2022/08/11 07:29:08;;;;;;;;;;;;;;;17.08;75.26;101237.34;4999254;28;1568;-83
2022/08/11 07:31:48;;;;;;;;;;;;;;;17.12;76.33;101238.34;4996676;28;1356;-83
2022/08/11 07:34:14;;;;;;;;;;;;;;;17.18;76.01;101237.13;5016142;28;1293;-83
2022/08/11 07:36:41;;;;;;;;;;;;;;;17.22;75.73;101229.88;5030491;28;1605;-84
2022/08/11 07:39:10;;;;;;;;;;;;;;;17.26;75.15;101230.09;4998737;28;1314;-83
2022/08/11 07:41:35;;;;;;;;;;;;;;;17.31;74.61;101230.78;4998051;28;1441;-85
2022/08/11 07:44:07;;;;;;;;;;;;;;;17.38;74.72;101233.13;4998152;28;1409;-84
2022/08/11 07:52:32;;;;;;;;;;;;;;;17.62;73.87;101222.69;4996513;28;1374;-85
2022/08/11 07:55:02;;;;;;;;;;;;;;;17.67;73.97;101225.34;4998626;28;1445;-85
2022/08/11 08:19:25;;;;;;;;;;;;;;;18.18;73.96;101215.06;4998623;28;732;-85
2022/08/11 08:21:50;;;;;;;;;;;;;;;18.23;74.49;101217.69;4997793;28;1285;-84
2022/08/11 08:24:18;;;;;;;;;;;;;;;18.25;75.02;101216.25;4995050;28;1660;-84
2022/08/11 08:26:59;;;;;;;;;;;;;;;18.27;73.79;101208.44;4997281;28;1898;-85
2022/08/11 08:32:17;;;;;;;;;;;;;;;18.46;71.92;101203.50;4998016;28;1220;-85
2022/08/11 08:34:43;;;;;;;;;;;;;;;18.54;72.50;101202.75;4997682;28;786;-85
2022/08/11 08:37:08;;;;;;;;;;;;;;;18.60;70.99;101199.88;4989343;28;1515;-85
2022/08/11 08:39:36;;;;;;;;;;;;;;;18.66;70.62;101201.38;4996338;28;1325;-83
2022/08/11 08:42:02;;;;;;;;;;;;;;;18.78;70.83;101194.13;5011860;28;1448;-86
2022/08/11 08:44:30;;;;;;;;;;;;;;;18.86;72.01;101198.91;4996612;28;1739;-84
2022/08/11 08:46:57;;;;;;;;;;;;;;;18.89;71.44;101198.22;4998839;28;1879;-85
2022/08/11 08:49:26;;;;;;;;;;;;;;;18.95;69.44;101189.78;4997271;28;1401;-84
2022/08/11 08:51:52;;;;;;;;;;;;;;;18.99;71.01;101191.59;4996528;28;1341;-84
2022/08/11 08:54:20;;;;;;;;;;;;;;;19.01;72.51;101197.66;4998369;28;795;-84
2022/08/11 08:56:45;;;;;;;;;;;;;;;19.07;71.75;101188.03;4997249;28;1175;-86
2022/08/11 08:59:14;;;;;;;;;;;;;;;19.18;71.05;101188.56;4987931;28;1669;-85
2022/08/11 09:01:42;;;;;;;;;;;;;;;19.23;72.15;101186.44;4999036;28;1201;-84
2022/08/11 09:04:08;;;;;;;;;;;;;;;19.32;72.96;101185.66;4996898;28;1188;-85
2022/08/11 09:06:34;;;;;;;;;;;;;;;19.41;71.71;101189.28;4996710;28;1953;-84
2022/08/11 09:08:59;;;;;;;;;;;;;;;19.49;72.10;101186.53;4998660;28;826;-85
2022/08/11 09:14:08;;;;;;;;;;;;;;;19.53;71.13;101179.22;4998537;28;719;-84
2022/08/11 09:16:34;;;;;;;;;;;;;;;19.56;73.17;101178.56;4998992;28;1376;-84
2022/08/11 09:19:00;;;;;;;;;;;;;;;19.63;71.11;101178.09;4985968;28;842;-85
2022/08/11 09:21:26;;;;;;;;;;;;;;;19.71;71.85;101170.91;4986238;28;1016;-85
2022/08/11 09:29:20;;;;;;;;;;;;;;;19.98;68.79;101165.88;4986335;28;632;-85
2022/08/11 09:31:46;;;;;;;;;;;;;;;20.00;69.39;101162.72;5001204;28;1343;-86
2022/08/11 09:34:12;;;;;;;;;;;;;;;19.98;69.50;101159.47;5001681;28;1159;-85
2022/08/11 09:42:06;;;;;;;;;;;;;;;20.33;62.36;101144.38;5006927;28;1257;-85
2022/08/11 09:44:46;;;;;;;;;;;;;;;20.60;63.30;101148.75;5009805;28;1115;-84
2022/08/11 09:47:14;;;;;;;;;;;;;;;20.61;62.14;101147.59;5009137;28;1943;-84
2022/08/11 09:49:40;;;;;;;;;;;;;;;20.56;64.33;101139.47;5005204;28;876;-84
2022/08/11 09:52:08;;;;;;;;;;;;;;;20.56;59.32;101144.19;5004891;28;1197;-84
2022/08/11 09:54:33;;;;;;;;;;;;;;;20.60;59.45;101132.06;5002196;28;1550;-86
2022/08/11 09:59:42;;;;;;;;;;;;;;;20.71;59.80;101130.56;4985676;28;683;-84
2022/08/11 10:02:08;;;;;;;;;;;;;;;20.73;59.75;101125.50;5000325;28;1337;-85
2022/08/11 10:04:37;;;;;;;;;;;;;;;20.95;59.08;101129.97;4985388;28;988;-85
2022/08/11 10:07:09;;;;;;;;;;;;;;;20.98;58.51;101123.72;4999904;28;1894;-85
2022/08/11 10:09:39;;;;;;;;;;;;;;;20.94;55.33;101113.59;5003287;28;1488;-85
2022/08/11 10:12:06;;;;;;;;;;;;;;;20.95;57.32;101115.22;5003982;28;1452;-86
2022/08/11 10:17:19;;;;;;;;;;;;;;;21.06;58.99;101108.94;5004514;28;1631;-85
2022/08/11 10:19:46;;;;;;;;;;;;;;;21.04;59.87;101102.06;5006320;28;1871;-84
2022/08/11 10:27:42;;;;;;;;;;;;;;;21.29;55.92;101101.13;4997597;28;1902;-84
2022/08/11 10:35:36;;;;;;;;;;;;;;;21.47;56.94;101091.50;4999602;28;1432;-85
2022/08/11 10:38:02;;;;;;;;;;;;;;;21.72;55.13;101091.63;4997997;28;1350;-85
2022/08/11 10:40:27;;;;;;;;;;;;;;;21.66;52.86;101087.41;4997687;28;1149;-85
2022/08/11 10:43:12;;;;;;;;;;;;;;;21.77;53.00;101081.09;5001950;28;1451;-83
2022/08/11 10:48:24;;;;;;;;;;;;;;;21.69;53.44;101070.81;5008252;28;1668;-83
2022/08/11 10:59:06;;;;;;;;;;;;;;;21.97;51.44;101059.94;5008986;28;735;-83
2022/08/11 11:01:33;;;;;;;;;;;;;;;22.00;52.48;101055.66;5008636;28;1374;-83
2022/08/11 11:04:11;;;;;;;;;;;;;;;22.05;51.42;101055.44;5008568;28;859;-83
2022/08/11 11:06:52;;;;;;;;;;;;;;;22.09;51.71;101056.38;5007349;28;1887;-83
2022/08/11 11:09:20;;;;;;;;;;;;;;;22.15;52.72;101061.38;5019927;28;1802;-83
2022/08/11 11:19:56;;;;;;;;;;;;;;;22.27;52.41;101050.28;5010861;28;1008;-83
2022/08/11 11:22:38;;;;;;;;;;;;;;;22.43;50.02;101044.00;5010800;28;1306;-84
2022/08/11 11:25:06;;;;;;;;;;;;;;;22.38;52.02;101044.22;5024311;28;1330;-83
2022/08/11 11:27:39;;;;;;;;;;;;;;;22.50;50.85;101049.81;5024994;28;1950;-84
2022/08/11 11:30:05;;;;;;;;;;;;;;;22.50;49.30;101044.25;5009214;28;1298;-83
2022/08/11 11:32:33;;;;;;;;;;;;;;;22.58;48.95;101048.91;5007396;28;1324;-83
2022/08/11 11:34:59;;;;;;;;;;;;;;;22.62;49.59;101038.69;5023718;28;1324;-84
2022/08/11 11:37:24;;;;;;;;;;;;;;;22.72;50.46;101032.59;5009255;28;984;-84
2022/08/11 11:39:50;;;;;;;;;;;;;;;22.65;51.77;101041.56;5007325;28;1161;-84
2022/08/11 11:42:17;;;;;;;;;;;;;;;22.79;49.52;101037.66;5008570;28;1298;-83
2022/08/11 11:44:43;;;;;;;;;;;;;;;22.84;51.24;101032.66;5009526;28;1222;-83
2022/08/11 11:47:10;;;;;;;;;;;;;;;22.74;50.44;101030.31;5007095;28;1946;-84
2022/08/11 11:49:39;;;;;;;;;;;;;;;22.76;53.14;101024.41;5016124;28;1143;-84
2022/08/11 11:52:05;;;;;;;;;;;;;;;22.89;50.56;101028.78;5012900;28;1295;-83
2022/08/11 11:54:32;;;;;;;;;;;;;;;22.93;49.42;101024.97;5009378;28;1179;-83
2022/08/11 12:01:14;;;;;;;;;;;;;;;22.85;48.57;101014.75;5000169;28;1669;-83
2022/08/11 12:02:28;;;;;;;;;;;;;;;23.19;49.46;101024.56;5002084;28;1680;-83
2022/08/11 12:04:54;;;;;;;;;;;;;;;23.19;48.71;101018.97;4996801;28;1386;-83
2022/08/11 12:10:04;;;;;;;;;;;;;;;23.11;49.00;101005.16;4998596;28;1493;-83
2022/08/11 12:15:16;;;;;;;;;;;;;;;23.33;49.65;101008.22;5003361;28;1335;-83
2022/08/11 12:17:41;;;;;;;;;;;;;;;23.36;48.62;101007.53;5010323;28;1266;-81
2022/08/11 12:20:06;;;;;;;;;;;;;;;23.30;47.96;100994.16;4998837;28;1311;-84
2022/08/11 12:28:00;;;;;;;;;;;;;;;23.58;48.56;100991.38;5003644;28;1894;-83
2022/08/11 12:30:26;;;;;;;;;;;;;;;23.62;47.40;100984.75;5004982;28;1087;-83
2022/08/11 12:32:51;;;;;;;;;;;;;;;23.60;46.88;100987.06;5003461;28;1878;-83
2022/08/11 12:35:16;;;;;;;;;;;;;;;23.58;47.74;100980.22;4994642;28;1565;-83
2022/08/11 12:37:43;;;;;;;;;;;;;;;23.65;47.27;100977.59;4999235;28;1441;-84
2022/08/11 12:45:41;;;;;;;;;;;;;;;23.84;45.92;100971.34;5001192;28;1431;-84
2022/08/11 12:53:50;;;;;;;;;;;;;;;24.05;45.64;100955.13;5000908;28;1307;-84
2022/08/11 13:07:14;;;;;;;;;;;;;;;24.31;46.53;100949.03;4989692;28;1886;-84
2022/08/11 13:09:40;;;;;;;;;;;;;;;24.37;47.20;100959.56;5016528;28;1766;-84
2022/08/11 13:14:50;;;;;;;;;;;;;;;24.65;45.75;100939.84;5001540;28;1380;-82
2022/08/11 13:17:25;;;;;;;;;;;;;;;24.66;46.21;100932.25;5006838;28;1397;-83
2022/08/11 13:19:52;;;;;;;;;;;;;;;24.73;47.93;100930.44;5003865;28;1440;-83
2022/08/11 13:22:17;;;;;;;;;;;;;;;24.96;48.02;100938.97;5005715;28;1296;-83
2022/08/11 13:24:43;;;;;;;;;;;;;;;25.55;45.40;100934.94;5006116;28;1759;-84
2022/08/11 13:27:11;;;;;;;;;;;;;;;27.03;43.23;100935.84;5005769;28;1955;-84
2022/08/11 13:29:36;;;;;;;;;;;;;;;28.84;40.78;100938.41;5009758;28;1162;-84
2022/08/11 13:32:01;;;;;;;;;;;;;;;30.50;37.69;100925.09;5005099;28;1358;-82
2022/08/11 13:34:29;;;;;;;;;;;;;;;31.62;35.17;100923.13;5004069;28;1142;-81
2022/08/11 13:36:58;;;;;;;;;;;;;;;32.21;34.12;100920.28;5001214;28;1573;-82
2022/08/11 13:39:24;;;;;;;;;;;;;;;32.74;33.92;100919.00;4999584;28;1532;-82
2022/08/11 13:41:50;;;;;;;;;;;;;;;33.41;32.62;100913.28;5002627;28;1401;-82
2022/08/11 13:44:16;;;;;;;;;;;;;;;33.89;32.65;100903.66;5003764;28;1275;-82
2022/08/11 13:46:42;;;;;;;;;;;;;;;34.24;32.76;100901.50;5004195;28;1942;-82
2022/08/11 13:49:08;;;;;;;;;;;;;;;34.45;31.34;100901.88;4990061;28;1551;-82
2022/08/11 13:51:34;;;;;;;;;;;;;;;34.69;31.39;100899.81;5002524;28;1741;-82
2022/08/11 13:54:05;;;;;;;;;;;;;;;34.92;30.21;100898.97;5004316;28;1118;-81
2022/08/11 13:56:31;;;;;;;;;;;;;;;34.98;29.51;100887.88;5008153;28;1528;-82
2022/08/11 13:58:57;;;;;;;;;;;;;;;34.96;30.50;100893.22;5010750;28;1417;-82
2022/08/11 14:01:32;;;;;;;;;;;;;;;34.92;30.02;100882.72;5009456;28;1531;-81
2022/08/11 14:04:06;;;;;;;;;;;;;;;33.86;31.86;100890.31;5004456;28;1520;-81
2022/08/11 14:06:33;;;;;;;;;;;;;;;32.09;33.20;100884.75;5003474;28;1897;-81
2022/08/11 14:08:58;;;;;;;;;;;;;;;30.82;35.39;100883.47;5000691;28;1639;-81
2022/08/11 14:14:10;;;;;;;;;;;;;;;29.54;36.06;100891.19;5005108;28;1417;-80
2022/08/11 14:16:39;;;;;;;;;;;;;;;29.32;37.07;100884.66;5004168;28;1639;-81
2022/08/11 14:19:07;;;;;;;;;;;;;;;29.19;37.72;100881.38;5006373;28;1531;-80
2022/08/11 14:24:18;;;;;;;;;;;;;;;28.87;38.97;100878.44;5005552;28;1412;-81
2022/08/11 14:26:46;;;;;;;;;;;;;;;28.78;39.11;100875.19;5003197;28;1890;-83
2022/08/11 14:29:13;;;;;;;;;;;;;;;28.65;38.73;100871.06;5004403;28;1032;-83
2022/08/11 14:31:46;;;;;;;;;;;;;;;28.55;38.82;100864.19;5001837;28;1261;-83
2022/08/11 14:34:13;;;;;;;;;;;;;;;28.46;39.53;100866.53;5003421;28;1515;-83
2022/08/11 14:36:40;;;;;;;;;;;;;;;28.43;38.79;100869.31;5017966;28;1470;-83
2022/08/11 14:39:07;;;;;;;;;;;;;;;28.41;39.39;100868.94;5004581;28;1056;-83
2022/08/11 14:47:05;;;;;;;;;;;;;;;28.35;38.75;100865.66;5005059;28;1972;-83
2022/08/11 14:49:33;;;;;;;;;;;;;;;28.32;39.15;100860.03;5005127;28;886;-83
2022/08/11 14:51:59;;;;;;;;;;;;;;;28.30;39.80;100859.59;5002287;28;1520;-83
2022/08/11 14:57:11;;;;;;;;;;;;;;;28.19;38.84;100840.63;5003298;28;664;-82
2022/08/11 14:59:36;;;;;;;;;;;;;;;28.28;39.62;100853.53;5001922;28;1345;-83
2022/08/11 15:04:47;;;;;;;;;;;;;;;28.23;40.25;100840.66;4985898;28;700;-83
2022/08/11 15:07:13;;;;;;;;;;;;;;;28.22;39.57;100847.47;4983813;28;1894;-83
2022/08/11 15:09:42;;;;;;;;;;;;;;;28.21;39.95;100849.50;4982211;28;1608;-83
2022/08/11 15:12:08;;;;;;;;;;;;;;;28.21;39.95;100855.13;4992832;28;1548;-83
2022/08/11 15:17:06;;;;;;;;;;;;;;;28.26;40.51;100847.50;5001280;28;1194;-83
2022/08/11 15:17:26;;;;;;;;;;;;;;;28.20;40.11;100853.50;5004923;28;1083;-83
2022/08/11 15:25:19;;;;;;;;;;;;;;;28.16;40.27;100830.13;5005449;28;683;-83
2022/08/11 15:38:51;;;;;;;;;;;;;;;28.16;39.45;100830.13;5009873;28;620;-83
2022/08/11 15:46:47;;;;;;;;;;;;;;;28.09;39.81;100815.19;5010081;28;1882;-83
2022/08/11 15:49:15;;;;;;;;;;;;;;;28.08;40.15;100817.19;5009948;28;902;-84
2022/08/11 15:51:56;;;;;;;;;;;;;;;28.09;39.96;100813.19;5009461;28;1605;-83
2022/08/11 15:54:25;;;;;;;;;;;;;;;28.06;40.15;100813.97;5007142;28;1851;-83
2022/08/11 15:56:53;;;;;;;;;;;;;;;28.04;40.53;100810.75;5010256;28;1270;-83
2022/08/11 16:04:48;;;;;;;;;;;;;;;28.06;39.30;100807.53;5011180;28;1429;-83
2022/08/11 16:07:14;;;;;;;;;;;;;;;28.06;38.67;100808.34;5012276;28;1871;-85
2022/08/11 16:09:43;;;;;;;;;;;;;;;28.08;38.86;100811.56;4998330;28;1352;-83
2022/08/11 16:12:09;;;;;;;;;;;;;;;28.05;39.47;100801.09;5019639;28;1773;-84
2022/08/11 16:17:21;;;;;;;;;;;;;;;28.15;38.24;100806.00;5006049;28;1674;-83
2022/08/11 16:19:48;;;;;;;;;;;;;;;28.15;38.23;100799.56;5007814;28;1039;-83
2022/08/11 16:22:17;;;;;;;;;;;;;;;28.12;38.91;100798.31;5008420;28;1677;-83
2022/08/11 16:24:44;;;;;;;;;;;;;;;28.17;38.59;100794.34;5008007;28;1410;-83
2022/08/11 16:27:11;;;;;;;;;;;;;;;28.16;38.63;100787.91;5012136;28;1958;-84
2022/08/11 16:29:41;;;;;;;;;;;;;;;28.18;38.61;100790.34;5002215;28;1805;-84
2022/08/11 16:32:15;;;;;;;;;;;;;;;28.08;39.16;100786.22;5014564;28;1381;-83
2022/08/11 16:40:11;;;;;;;;;;;;;;;27.99;38.80;100787.75;5018804;28;1582;-88
2022/08/11 16:48:06;;;;;;;;;;;;;;;27.94;39.02;100783.31;5011614;28;1902;-89
2022/08/11 16:50:31;;;;;;;;;;;;;;;27.92;39.01;100784.91;5010625;28;1471;-88
2022/08/11 16:52:56;;;;;;;;;;;;;;;27.92;39.02;100791.34;5021985;28;1316;-88
2022/08/11 16:55:22;;;;;;;;;;;;;;;27.93;39.08;100780.91;5020085;28;825;-88
2022/08/11 17:00:32;;;;;;;;;;;;;;;27.94;38.84;100782.53;5013988;28;1200;-89
2022/08/11 17:14:13;;;;;;;;;;;;;;;28.00;37.64;100780.94;5027146;28;1410;-88
2022/08/11 17:16:39;;;;;;;;;;;;;;;27.97;38.19;100779.75;5012866;28;1192;-87
2022/08/11 17:19:10;;;;;;;;;;;;;;;27.95;38.29;100773.69;5019391;28;1445;-88
2022/08/11 17:23:45;;;;;;;;;;;;;;;27.89;37.52;100768.84;5013213;28;1353;-88
2022/08/11 17:24:27;;;;;;;;;;;;;;;27.91;38.44;100778.47;5013491;28;1359;-89
2022/08/11 17:26:56;;;;;;;;;;;;;;;27.88;38.55;100773.66;5012653;28;1951;-87
2022/08/11 17:29:42;;;;;;;;;;;;;;;27.82;38.56;100778.00;5009211;28;1329;-88
2022/08/11 17:37:49;;;;;;;;;;;;;;;27.71;37.97;100771.50;5016947;28;1495;-88
2022/08/11 17:40:17;;;;;;;;;;;;;;;27.69;38.38;100773.91;5022745;28;1651;-88
2022/08/11 17:48:24;;;;;;;;;;;;;;;27.61;38.14;100775.03;5017906;28;1333;-88
2022/08/11 17:48:36;;;;;;;;;;;;;;;27.56;38.79;100769.78;5024193;28;1944;-88
2022/08/11 17:51:09;;;;;;;;;;;;;;;27.55;38.48;100765.34;5037221;28;805;-88
2022/08/11 18:03:27;;;;;;;;;;;;;;;27.36;41.26;100781.22;5005620;28;1419;-86
2022/08/11 18:04:43;;;;;;;;;;;;;;;27.33;38.75;100792.44;5023756;28;1424;-88
